KCOE

Coeur D'alene - Pappy Boyington Field Airport

Coeur D'alene, Idaho, USA
KCOE 151132Z 1512/1612 07004KT 6SM HZ SKC FM151600 09006KT 3SM FU HZ BKN035 FM152100 23005KT 5SM FU HZ SCT040 SCT250 FM160300 15003KT 6SM FU HZ SCT040 BKN150
Issued Valid From Valid To
Aug-15 @ 11:32 UTC
(an hour ago)
Aug-15 @ 12:00 UTC
(42 minutes ago)
Aug-16 @ 12:00 UTC
(in 23 hours)
Aug-15 @ 12:00 to Aug-15 @ 16:00
KCOE 151132Z 1512/1612 07004KT 6SM HZ SKC
Wind Visibility Clouds Conditions
70° at 4 knots 6 miles
  • Clear skies
  • Haze
From Aug-15 @ 16:00 to Aug-15 @ 21:00
FM151600 09006KT 3SM FU HZ BKN035
Wind Visibility Clouds Conditions
90° at 6 knots 3 miles
  • Broken at 3,500' AGL
  • Smoke
  • Haze
From Aug-15 @ 21:00 to Aug-16 @ 03:00
FM152100 23005KT 5SM FU HZ SCT040 SCT250
Wind Visibility Clouds Conditions
230° at 5 knots 5 miles
  • Scattered at 4,000' AGL
  • Scattered at 25,000' AGL
  • Smoke
  • Haze
From Aug-16 @ 03:00 to Aug-16 @ 12:00
FM160300 15003KT 6SM FU HZ SCT040 BKN150
Wind Visibility Clouds Conditions
150° at 3 knots 6 miles
  • Scattered at 4,000' AGL
  • Broken at 15,000' AGL
  • Smoke
  • Haze
KCOE 151132Z 1512/1612 07004KT 6SM HZ SKC FM151600 09006KT 3SM FU HZ BKN035 FM152100 23005KT 5SM FU HZ SCT040 SCT250 FM160300 15003KT 6SM FU HZ SCT040 BKN150
Issued Aug-15 @ 11:32 UTC
(an hour ago)
Valid From Aug-15 @ 12:00 UTC
(42 minutes ago)
Valid To Aug-16 @ 12:00 UTC
(in 23 hours)
Aug-15 @ 12:00 - Aug-15 @ 16:00
Wind Visibility
70° at 4 knots 6 miles
Clouds
  • Clear skies
Conditions
  • Haze
From Aug-15 @ 16:00 - Aug-15 @ 21:00
Wind Visibility
90° at 6 knots 3 miles
Clouds
  • Broken at 3,500' AGL
Conditions
  • Smoke
  • Haze
From Aug-15 @ 21:00 - Aug-16 @ 03:00
Wind Visibility
230° at 5 knots 5 miles
Clouds
  • Scattered at 4,000' AGL
  • Scattered at 25,000' AGL
Conditions
  • Smoke
  • Haze
From Aug-16 @ 03:00 - Aug-16 @ 12:00
Wind Visibility
150° at 3 knots 6 miles
Clouds
  • Scattered at 4,000' AGL
  • Broken at 15,000' AGL
Conditions
  • Smoke
  • Haze